Time;durP1;ratioP1;P1;durP2;ratioP2;P2;SDS_P1;SDS_P2;PMS_P1;PMS_P2;Temp;Humidity;BMP_temperature;BMP_pressure;BME280_temperature;BME280_humidity;BME280_pressure;Samples;Min_cycle;Max_cycle;Signal;HPM_P1;HPM_P2
2023/07/28 00:01:37;;;;;;;11.90;6.28;;;;;;;18.48;87.67;99856.78;4101147;28;20406;-68
2023/07/28 00:03:40;;;;;;;11.82;6.07;;;;;;;18.56;87.48;99850.44;4111387;28;20039;-68
2023/07/28 00:05:42;;;;;;;8.25;5.35;;;;;;;18.69;86.41;99854.47;4112352;28;20493;-68
2023/07/28 00:07:45;;;;;;;7.60;5.40;;;;;;;18.59;86.96;99859.13;4110207;28;20049;-68
2023/07/28 00:09:48;;;;;;;10.43;5.93;;;;;;;18.56;87.29;99864.47;4110341;28;20041;-68
2023/07/28 00:11:51;;;;;;;6.45;5.03;;;;;;;18.57;87.75;99860.91;4112149;28;20034;-68
2023/07/28 00:13:54;;;;;;;8.07;4.70;;;;;;;18.59;87.40;99863.53;4110069;28;20106;-68
2023/07/28 00:15:58;;;;;;;9.85;6.40;;;;;;;18.65;87.78;99868.63;4113204;28;20062;-68
2023/07/28 00:18:01;;;;;;;7.93;5.25;;;;;;;18.64;87.33;99858.97;4110017;28;20134;-68
2023/07/28 00:20:06;;;;;;;7.28;6.18;;;;;;;18.65;87.29;99852.81;4113378;28;20054;-67
2023/07/28 00:22:07;;;;;;;8.18;5.63;;;;;;;18.62;87.79;99856.41;4111616;28;20037;-69
2023/07/28 00:24:10;;;;;;;7.82;6.07;;;;;;;18.55;87.44;99852.22;4110332;28;20066;-69
2023/07/28 00:26:13;;;;;;;7.57;4.55;;;;;;;18.58;87.49;99856.53;4112391;28;20385;-69
2023/07/28 00:28:16;;;;;;;7.90;5.15;;;;;;;18.64;87.19;99844.03;4111467;28;20043;-69
2023/07/28 00:30:19;;;;;;;9.88;4.85;;;;;;;18.60;87.36;99855.59;4109905;28;20042;-69
2023/07/28 00:32:24;;;;;;;7.15;5.40;;;;;;;18.59;87.39;99845.09;4093650;29;20150;-69
2023/07/28 00:34:27;;;;;;;7.63;5.78;;;;;;;18.58;87.69;99841.59;4113363;28;20034;-69
2023/07/28 00:36:30;;;;;;;5.90;4.15;;;;;;;18.59;87.52;99853.00;4102956;28;20555;-69
2023/07/28 00:38:33;;;;;;;9.15;4.65;;;;;;;18.60;87.66;99844.19;4115851;28;20125;-69
2023/07/28 00:40:35;;;;;;;6.85;4.38;;;;;;;18.62;87.44;99842.38;4111997;28;20588;-68
2023/07/28 00:42:38;;;;;;;6.78;4.68;;;;;;;18.63;87.33;99831.81;4128326;28;20061;-69
2023/07/28 00:44:41;;;;;;;6.68;3.90;;;;;;;18.71;87.00;99831.56;4132441;28;20092;-69
2023/07/28 00:46:44;;;;;;;5.40;3.42;;;;;;;18.69;86.60;99827.25;4129397;28;20129;-69
2023/07/28 00:48:48;;;;;;;5.40;3.70;;;;;;;18.66;86.70;99831.72;4115823;28;20046;-69
2023/07/28 00:50:52;;;;;;;5.18;3.60;;;;;;;18.64;87.09;99828.25;4115601;28;20484;-69
2023/07/28 00:52:56;;;;;;;7.25;3.40;;;;;;;18.75;86.01;99832.31;4117724;28;20043;-68
2023/07/28 00:54:59;;;;;;;4.50;3.45;;;;;;;18.75;86.29;99832.31;4112038;28;20041;-69
2023/07/28 00:57:02;;;;;;;9.25;3.75;;;;;;;18.73;86.11;99832.38;4111774;28;20385;-68
2023/07/28 00:59:05;;;;;;;6.32;3.95;;;;;;;18.72;86.12;99827.16;4131629;28;20137;-68
2023/07/28 01:01:08;;;;;;;4.95;3.70;;;;;;;18.67;86.04;99824.66;4116705;28;20085;-68
2023/07/28 01:03:12;;;;;;;6.82;3.55;;;;;;;18.68;86.40;99823.75;4119073;28;20086;-68
2023/07/28 01:05:17;;;;;;;5.35;3.50;;;;;;;18.68;86.35;99823.75;4117639;28;20042;-68
2023/07/28 01:07:27;;;;;;;5.25;3.30;;;;;;;18.71;86.32;99839.47;4100120;28;20058;-68
2023/07/28 01:09:40;;;;;;;4.30;2.92;;;;;;;18.72;86.38;99833.31;4132205;28;20104;-68
2023/07/28 01:11:54;;;;;;;7.00;3.53;;;;;;;18.74;86.14;99830.63;4127970;28;20106;-68
2023/07/28 01:13:57;;;;;;;4.85;3.33;;;;;;;18.72;86.34;99835.94;4115726;28;20035;-68
2023/07/28 01:16:00;;;;;;;3.88;2.83;;;;;;;18.72;85.77;99832.41;4117942;28;20041;-68
2023/07/28 01:18:04;;;;;;;5.35;2.92;;;;;;;18.65;86.25;99832.59;4113968;28;20531;-68
2023/07/28 01:20:08;;;;;;;4.03;3.45;;;;;;;18.61;86.19;99820.44;4116602;28;20198;-68
2023/07/28 01:22:40;;;;;;;4.70;2.67;;;;;;;18.63;86.36;99829.16;4113034;28;20094;-68
2023/07/28 01:24:52;;;;;;;4.47;3.00;;;;;;;18.64;85.99;99824.75;4112905;28;20054;-68
2023/07/28 01:26:57;;;;;;;4.60;3.28;;;;;;;18.62;86.33;99831.84;4131923;28;20381;-68
2023/07/28 01:29:01;;;;;;;4.82;2.92;;;;;;;18.59;86.12;99824.91;4118540;28;20045;-68
2023/07/28 01:31:07;;;;;;;4.43;3.08;;;;;;;18.60;85.94;99817.84;4126467;28;20046;-68
2023/07/28 01:33:10;;;;;;;6.93;2.42;;;;;;;18.56;86.18;99813.56;4116356;28;20081;-68
2023/07/28 01:35:13;;;;;;;4.68;3.30;;;;;;;18.56;86.27;99809.19;4129010;28;20034;-68
2023/07/28 01:37:15;;;;;;;6.10;2.63;;;;;;;18.57;86.54;99816.16;4114743;28;20129;-68
2023/07/28 01:39:18;;;;;;;8.10;4.60;;;;;;;18.59;86.24;99821.41;4115234;28;20066;-68
2023/07/28 01:41:21;;;;;;;16.02;12.32;;;;;;;18.58;85.96;99817.03;4132238;28;20049;-68
2023/07/28 01:43:26;;;;;;;13.38;11.93;;;;;;;18.54;86.45;99812.78;4100253;29;20047;-68
2023/07/28 01:45:28;;;;;;;14.55;10.77;;;;;;;18.57;85.86;99820.56;4116492;28;20508;-68
2023/07/28 01:47:31;;;;;;;13.23;10.27;;;;;;;18.59;86.24;99817.00;4113825;28;20045;-68
2023/07/28 01:49:34;;;;;;;7.40;5.68;;;;;;;18.60;86.44;99820.47;4096302;29;20129;-68
2023/07/28 01:51:37;;;;;;;5.30;4.03;;;;;;;18.62;85.95;99823.94;4113895;28;20422;-68
2023/07/28 01:53:40;;;;;;;4.30;3.15;;;;;;;18.65;86.07;99818.59;4123385;28;20070;-68
2023/07/28 01:55:43;;;;;;;4.18;3.10;;;;;;;18.63;86.15;99820.38;4111303;28;20702;-68
2023/07/28 01:57:53;;;;;;;4.80;3.13;;;;;;;18.67;85.87;99819.41;4112880;28;20066;-67
2023/07/28 01:59:57;;;;;;;3.88;2.80;;;;;;;18.63;85.98;99823.91;4113034;28;20142;-68
2023/07/28 02:02:00;;;;;;;3.47;3.05;;;;;;;18.62;85.62;99829.22;4110313;28;20367;-68
2023/07/28 02:04:03;;;;;;;6.05;4.40;;;;;;;18.64;85.75;99824.75;4125500;28;20035;-68
2023/07/28 02:06:06;;;;;;;13.13;11.13;;;;;;;18.62;85.28;99813.41;4113278;28;20038;-68
2023/07/28 02:08:08;;;;;;;19.00;16.58;;;;;;;18.63;85.05;99815.13;4099446;28;20047;-68
2023/07/28 02:10:11;;;;;;;23.95;19.58;;;;;;;18.64;85.23;99824.75;4113566;28;20061;-68
2023/07/28 02:12:14;;;;;;;22.60;20.20;;;;;;;18.67;85.15;99824.66;4124258;28;20117;-68
2023/07/28 02:14:17;;;;;;;33.88;30.40;;;;;;;18.64;85.67;99828.25;4124928;28;20488;-68
2023/07/28 02:16:21;;;;;;;27.38;24.45;;;;;;;18.69;85.52;99828.13;4113216;28;20035;-68
2023/07/28 02:18:24;;;;;;;32.33;27.98;;;;;;;18.66;85.51;99823.81;4111875;28;20552;-68
2023/07/28 02:20:27;;;;;;;27.15;24.25;;;;;;;18.66;85.98;99833.47;4112391;28;20038;-68
2023/07/28 02:22:30;;;;;;;34.30;30.65;;;;;;;18.67;85.85;99835.19;4113528;28;20031;-68
2023/07/28 02:24:33;;;;;;;18.83;16.98;;;;;;;18.71;85.95;99834.19;4113257;28;20075;-68
2023/07/28 02:26:35;;;;;;;14.93;12.73;;;;;;;18.71;85.12;99825.44;4111123;28;20543;-68
2023/07/28 02:28:39;;;;;;;8.38;7.40;;;;;;;18.67;85.17;99827.28;4096543;29;20231;-69
2023/07/28 02:30:41;;;;;;;14.55;6.68;;;;;;;18.62;85.38;99816.06;4126960;28;20116;-68
2023/07/28 02:32:46;;;;;;;6.63;3.53;;;;;;;18.60;86.09;99817.84;4117388;28;20253;-68
2023/07/28 02:34:48;;;;;;;6.60;4.80;;;;;;;18.60;86.14;99815.22;4126318;23;20051;-74
2023/07/28 02:36:51;;;;;;;5.60;4.20;;;;;;;18.60;86.12;99817.84;4095846;28;20039;-73
2023/07/28 02:38:54;;;;;;;10.43;8.43;;;;;;;18.64;85.75;99814.22;4114022;28;20130;-73
2023/07/28 02:40:57;;;;;;;12.93;9.88;;;;;;;18.64;85.71;99812.44;4096457;28;20568;-73
2023/07/28 02:43:00;;;;;;;14.88;13.30;;;;;;;18.65;85.72;99806.28;4096422;28;20413;-73
2023/07/28 02:45:02;;;;;;;26.13;22.92;;;;;;;18.66;86.25;99817.66;4096715;28;20074;-73
2023/07/28 02:47:05;;;;;;;32.97;29.77;;;;;;;18.64;86.21;99817.72;4109866;28;20717;-72
2023/07/28 02:49:11;;;;;;;38.13;34.25;;;;;;;18.63;86.28;99816.00;4112633;28;20039;-72
2023/07/28 02:51:14;;;;;;;39.15;35.08;;;;;;;18.66;86.27;99820.28;4096259;28;20126;-72
2023/07/28 02:53:17;;;;;;;39.15;35.33;;;;;;;18.64;86.07;99822.13;4096043;28;20490;-72
2023/07/28 02:55:20;;;;;;;15.52;13.93;;;;;;;18.62;86.34;99816.06;4096843;28;20067;-73
2023/07/28 02:57:23;;;;;;;16.42;12.90;;;;;;;18.64;86.41;99827.38;4095996;28;20449;-73
2023/07/28 02:59:25;;;;;;;16.83;12.32;;;;;;;18.64;86.23;99824.75;4112573;28;20481;-73
2023/07/28 03:01:32;;;;;;;7.93;4.60;;;;;;;18.62;86.25;99816.91;4094259;28;20045;-73
2023/07/28 03:03:35;;;;;;;8.93;7.03;;;;;;;18.63;86.13;99820.38;4096448;29;20031;-73
2023/07/28 03:05:41;;;;;;;6.47;4.38;;;;;;;18.59;86.17;99826.69;4095861;28;20068;-73
2023/07/28 03:08:10;;;;;;;6.35;4.15;;;;;;;18.57;86.28;99828.47;4094002;28;20055;-73
2023/07/28 03:10:16;;;;;;;7.07;4.30;;;;;;;18.58;86.27;99825.78;4112970;28;20034;-72
2023/07/28 03:12:19;;;;;;;5.57;3.90;;;;;;;18.57;86.21;99825.84;4112782;28;21970;-72
2023/07/28 03:14:22;;;;;;;7.53;3.72;;;;;;;18.58;85.84;99820.53;4079883;29;20059;-72
2023/07/28 03:16:25;;;;;;;3.80;2.80;;;;;;;18.58;86.16;99824.94;4096374;28;20557;-72
2023/07/28 03:18:28;;;;;;;7.22;4.07;;;;;;;18.59;86.27;99826.69;4097129;28;20047;-72
2023/07/28 03:20:31;;;;;;;6.60;3.60;;;;;;;18.56;86.16;99832.88;4097048;28;20105;-72
2023/07/28 03:22:35;;;;;;;6.30;3.15;;;;;;;18.53;86.64;99838.25;4096457;29;20043;-72
2023/07/28 03:24:38;;;;;;;5.65;3.30;;;;;;;18.51;86.75;99840.03;4110907;28;20101;-72
2023/07/28 03:26:41;;;;;;;5.72;3.17;;;;;;;18.53;86.21;99818.94;4099723;28;20043;-73
2023/07/28 03:28:44;;;;;;;5.03;3.53;;;;;;;18.56;86.53;99821.47;4096940;28;20441;-73
2023/07/28 03:30:47;;;;;;;4.50;3.20;;;;;;;18.59;86.05;99817.00;4097368;28;20528;-73
2023/07/28 03:32:50;;;;;;;8.25;3.67;;;;;;;18.58;85.97;99806.50;4100270;28;20047;-72
2023/07/28 03:34:53;;;;;;;4.45;3.03;;;;;;;18.49;86.49;99815.53;4111319;28;20409;-73
2023/07/28 03:36:57;;;;;;;5.50;2.92;;;;;;;18.49;86.17;99820.81;4095628;28;20051;-73
2023/07/28 03:39:01;;;;;;;5.88;2.92;;;;;;;18.45;86.77;99819.16;4113069;28;20130;-73
2023/07/28 03:41:06;;;;;;;6.13;3.30;;;;;;;18.46;87.04;99813.00;4111685;28;20038;-73
2023/07/28 03:43:10;;;;;;;4.70;2.97;;;;;;;18.48;86.53;99819.91;4095651;29;20034;-72
2023/07/28 03:45:12;;;;;;;6.45;3.15;;;;;;;18.48;87.02;99817.28;4112301;28;20643;-72
2023/07/28 03:47:15;;;;;;;4.20;2.60;;;;;;;18.52;86.83;99825.13;4110315;28;20131;-72
2023/07/28 03:49:18;;;;;;;4.22;2.50;;;;;;;18.54;86.76;99825.94;4096256;28;20091;-72
2023/07/28 03:51:21;;;;;;;6.82;2.97;;;;;;;18.54;86.78;99828.56;4098040;28;20043;-73
2023/07/28 03:53:24;;;;;;;3.85;2.45;;;;;;;18.53;86.40;99832.09;4093725;28;20041;-75
2023/07/28 03:55:29;;;;;;;5.65;2.70;;;;;;;18.51;87.05;99832.13;4093022;28;20512;-75
2023/07/28 03:57:32;;;;;;;3.13;2.40;;;;;;;18.52;87.12;99838.28;4097212;28;20035;-76
2023/07/28 03:59:35;;;;;;;3.58;2.50;;;;;;;18.53;87.20;99832.09;4096314;28;20043;-75
2023/07/28 04:01:37;;;;;;;4.47;2.58;;;;;;;18.54;87.10;99831.19;4099958;28;20074;-78
2023/07/28 04:03:40;;;;;;;5.03;2.92;;;;;;;18.55;87.12;99832.94;4110209;28;20042;-78
2023/07/28 04:05:43;;;;;;;8.43;3.05;;;;;;;18.57;86.76;99829.31;4097554;28;20097;-77
2023/07/28 04:07:49;;;;;;;3.75;2.33;;;;;;;18.55;86.80;99833.78;4111402;28;20043;-77
2023/07/28 04:09:52;;;;;;;3.53;2.75;;;;;;;18.57;86.97;99833.75;4095594;28;20057;-74
2023/07/28 04:11:56;;;;;;;6.43;3.10;;;;;;;18.59;86.74;99838.06;4095294;28;20135;-74
2023/07/28 04:13:59;;;;;;;3.78;2.25;;;;;;;18.63;86.49;99833.56;4112725;28;20035;-74
2023/07/28 04:16:02;;;;;;;3.60;2.60;;;;;;;18.59;86.53;99830.16;4113116;28;20049;-74
2023/07/28 04:18:05;;;;;;;5.07;2.78;;;;;;;18.69;86.03;99827.25;4095357;28;20054;-72
2023/07/28 04:20:09;;;;;;;4.68;2.55;;;;;;;18.58;86.30;99835.47;4094155;29;20039;-73
2023/07/28 04:22:11;;;;;;;3.50;2.65;;;;;;;18.56;86.69;99832.00;4079749;29;20043;-73
2023/07/28 04:24:14;;;;;;;5.03;2.40;;;;;;;18.57;86.57;99828.47;4100430;28;20131;-73
2023/07/28 04:26:21;;;;;;;4.85;2.78;;;;;;;18.60;86.05;99834.53;4094338;28;20094;-73
2023/07/28 04:28:31;;;;;;;14.70;3.83;;;;;;;18.58;85.88;99841.59;4091811;28;20130;-73
2023/07/28 04:30:36;;;;;;;61.63;6.15;;;;;;;18.54;86.78;99834.69;4105958;28;20035;-73
2023/07/28 04:32:40;;;;;;;5.60;2.22;;;;;;;18.58;86.18;99841.59;4096566;28;20032;-75
2023/07/28 04:34:50;;;;;;;6.60;3.40;;;;;;;18.62;86.02;99845.00;4097953;28;20449;-73
2023/07/28 04:37:13;;;;;;;7.72;3.45;;;;;;;18.62;85.92;99852.91;4108218;28;20062;-74
2023/07/28 04:39:34;;;;;;;3.45;2.72;;;;;;;18.47;86.57;99859.44;4095865;28;20035;-73
2023/07/28 04:41:39;;;;;;;5.70;2.65;;;;;;;18.49;86.94;99855.88;4096854;28;20039;-74
2023/07/28 04:43:44;;;;;;;6.45;2.63;;;;;;;18.49;86.94;99858.50;4109316;28;20123;-73
2023/07/28 04:45:47;;;;;;;5.78;2.50;;;;;;;18.46;87.17;99861.22;4110611;28;20034;-73
2023/07/28 04:47:54;;;;;;;3.70;2.65;;;;;;;18.51;87.44;99860.25;4113657;28;20463;-74
2023/07/28 04:49:58;;;;;;;3.35;2.60;;;;;;;18.52;87.70;99865.47;4112913;28;20506;-74
2023/07/28 04:52:27;;;;;;;4.25;2.40;;;;;;;18.54;87.39;99865.41;4113345;28;20205;-74
2023/07/28 04:54:59;;;;;;;4.35;2.92;;;;;;;18.59;87.01;99864.38;4095497;28;20065;-74
2023/07/28 04:57:07;;;;;;;5.68;2.50;;;;;;;18.61;86.68;99853.81;4094620;28;20517;-74
2023/07/28 04:59:14;;;;;;;3.90;2.47;;;;;;;18.61;86.93;99867.81;4099775;28;20498;-74
2023/07/28 05:01:17;;;;;;;4.72;2.67;;;;;;;18.59;87.48;99869.66;4103663;28;20508;-75
2023/07/28 05:03:21;;;;;;;4.68;2.67;;;;;;;18.60;87.37;99866.13;4098402;28;20790;-74
2023/07/28 05:05:31;;;;;;;3.67;2.30;;;;;;;18.60;87.30;99873.13;4108175;28;20043;-75
2023/07/28 05:07:34;;;;;;;2.97;1.98;;;;;;;18.60;87.96;99871.38;4093976;28;20040;-75
2023/07/28 05:09:37;;;;;;;3.67;2.38;;;;;;;18.56;87.90;99868.84;4096974;29;22154;-76
2023/07/28 05:11:40;;;;;;;3.60;2.00;;;;;;;18.57;88.00;99870.59;4107432;28;20588;-75
2023/07/28 05:13:46;;;;;;;4.47;2.10;;;;;;;18.61;87.84;99866.97;4093516;28;20031;-75
2023/07/28 05:15:50;;;;;;;6.63;2.65;;;;;;;18.63;87.95;99873.94;4092626;28;20070;-76
2023/07/28 05:18:08;;;;;;;4.45;2.40;;;;;;;18.66;87.89;99871.19;4110419;28;20047;-75
2023/07/28 05:20:21;;;;;;;5.93;2.30;;;;;;;18.67;87.50;99869.41;4100248;28;20582;-75
2023/07/28 05:22:31;;;;;;;4.18;2.13;;;;;;;18.67;87.63;99870.31;4110806;28;20093;-75
2023/07/28 05:24:34;;;;;;;4.18;2.45;;;;;;;18.71;87.78;99865.78;4096974;28;20044;-76
2023/07/28 05:26:37;;;;;;;5.80;2.47;;;;;;;18.78;87.49;99877.88;4094414;28;20134;-75
2023/07/28 05:28:40;;;;;;;4.32;2.50;;;;;;;18.80;87.03;99875.19;4122561;28;20150;-76
2023/07/28 05:30:42;;;;;;;3.97;2.25;;;;;;;18.77;87.33;99875.28;4117228;28;20049;-76
2023/07/28 05:32:47;;;;;;;2.70;2.13;;;;;;;18.76;87.18;99881.47;4102319;28;20580;-75
2023/07/28 05:34:57;;;;;;;3.25;2.05;;;;;;;18.84;87.13;99879.47;4111656;28;20118;-75
2023/07/28 05:37:00;;;;;;;3.45;2.38;;;;;;;18.79;87.34;99871.72;4113144;28;20050;-75
2023/07/28 05:39:07;;;;;;;3.90;2.30;;;;;;;18.78;87.27;99872.63;4103768;28;20074;-75
2023/07/28 05:41:14;;;;;;;3.17;1.98;;;;;;;18.77;87.41;99868.25;4110831;28;20055;-75
2023/07/28 05:43:20;;;;;;;5.18;2.03;;;;;;;18.88;86.50;99872.38;4094923;28;20571;-75
2023/07/28 05:45:24;;;;;;;3.47;1.92;;;;;;;18.78;86.99;99875.25;4116355;28;20043;-74
2023/07/28 05:47:27;;;;;;;4.10;2.55;;;;;;;18.76;87.46;99878.81;4118839;28;20050;-75
2023/07/28 05:49:31;;;;;;;2.67;1.80;;;;;;;18.80;87.11;99875.19;4108962;28;20042;-75
2023/07/28 05:51:34;;;;;;;2.35;1.75;;;;;;;18.80;87.36;99880.47;4097904;28;20050;-75
2023/07/28 05:53:38;;;;;;;2.78;1.90;;;;;;;18.84;87.08;99880.31;4116814;28;20400;-74
2023/07/28 05:55:42;;;;;;;2.63;1.90;;;;;;;18.86;86.88;99889.97;4098205;28;20078;-74
2023/07/28 05:57:45;;;;;;;3.30;1.42;;;;;;;18.84;87.55;99884.75;4101830;28;20049;-74
2023/07/28 05:59:48;;;;;;;3.75;1.83;;;;;;;18.86;87.40;99887.34;4081962;29;20560;-74
2023/07/28 06:01:51;;;;;;;2.80;2.00;;;;;;;18.87;87.50;99889.09;4114035;28;20046;-75
2023/07/28 06:03:58;;;;;;;2.43;1.73;;;;;;;18.86;87.71;99896.13;4099600;28;20066;-75
2023/07/28 06:06:05;;;;;;;3.78;1.60;;;;;;;18.91;87.84;99906.50;4100325;28;20051;-75
2023/07/28 06:08:08;;;;;;;3.40;1.95;;;;;;;18.95;87.69;99900.25;4099868;28;20158;-75
2023/07/28 06:10:11;;;;;;;3.10;1.83;;;;;;;18.96;87.44;99899.34;4111073;28;20528;-75
2023/07/28 06:12:13;;;;;;;2.85;1.80;;;;;;;18.97;87.20;99901.94;4100828;28;20051;-75
2023/07/28 06:14:16;;;;;;;3.00;1.63;;;;;;;19.00;87.38;99911.53;4116092;28;20042;-75
2023/07/28 06:16:19;;;;;;;2.30;1.67;;;;;;;19.00;87.19;99907.13;4071287;29;20051;-75
2023/07/28 06:18:22;;;;;;;3.13;1.65;;;;;;;19.01;86.88;99914.13;4097358;28;20050;-75
2023/07/28 06:20:32;;;;;;;2.00;1.42;;;;;;;19.02;87.35;99922.88;4098068;28;20079;-75
2023/07/28 06:22:35;;;;;;;2.75;1.95;;;;;;;19.06;86.89;99921.88;4113458;28;20049;-76
2023/07/28 06:24:38;;;;;;;2.72;1.55;;;;;;;19.05;87.28;99920.16;4112583;28;20070;-76
2023/07/28 06:26:41;;;;;;;1.80;1.42;;;;;;;19.07;87.00;99922.72;4094518;28;20533;-75
2023/07/28 06:28:44;;;;;;;4.38;1.90;;;;;;;19.11;87.13;99925.22;4099800;28;20109;-76
2023/07/28 06:30:47;;;;;;;2.90;1.77;;;;;;;19.08;87.16;99933.22;4113482;28;20047;-75
2023/07/28 06:32:50;;;;;;;2.20;1.73;;;;;;;19.11;87.11;99930.50;4098242;28;20094;-75
2023/07/28 06:34:53;;;;;;;2.85;1.70;;;;;;;19.06;87.37;99939.47;4112268;28;20042;-75
2023/07/28 06:36:57;;;;;;;1.48;1.38;;;;;;;19.04;87.42;99943.91;4110024;28;20039;-75
2023/07/28 06:39:02;;;;;;;2.47;1.60;;;;;;;19.03;87.51;99945.69;4100066;28;20046;-76
2023/07/28 06:41:04;;;;;;;3.08;1.98;;;;;;;19.05;87.54;99948.28;4100933;28;20036;-75
2023/07/28 06:43:08;;;;;;;5.22;2.10;;;;;;;19.10;87.34;99947.25;4117350;28;20083;-76
2023/07/28 06:45:11;;;;;;;2.25;1.70;;;;;;;19.10;87.81;99959.53;4114732;28;20485;-75
2023/07/28 06:47:14;;;;;;;3.00;2.10;;;;;;;19.05;87.87;99950.91;4094247;28;20063;-77
2023/07/28 06:49:17;;;;;;;2.30;1.88;;;;;;;19.03;88.27;99958.88;4093954;28;20035;-75
2023/07/28 06:51:20;;;;;;;2.28;1.63;;;;;;;19.05;88.22;99962.31;4094525;28;20047;-75
2023/07/28 06:53:22;;;;;;;2.30;1.67;;;;;;;19.05;88.00;99964.94;4112648;28;20039;-75
2023/07/28 06:55:27;;;;;;;2.92;1.85;;;;;;;19.08;88.39;99964.00;4118903;28;20034;-75
2023/07/28 06:57:31;;;;;;;2.63;1.90;;;;;;;19.04;88.42;99968.50;4113816;28;20038;-74
2023/07/28 06:59:34;;;;;;;3.60;1.92;;;;;;;19.07;88.62;99963.13;4097056;28;20043;-75
2023/07/28 07:01:37;;;;;;;1.70;1.60;;;;;;;19.08;88.34;99969.25;4096590;28;20047;-75
2023/07/28 07:03:40;;;;;;;6.30;2.00;;;;;;;19.09;88.72;99968.38;4096420;28;20050;-75
2023/07/28 07:05:43;;;;;;;2.38;1.52;;;;;;;19.14;88.55;99966.44;4097419;29;20095;-73
2023/07/28 07:07:46;;;;;;;3.17;1.92;;;;;;;19.13;88.40;99976.13;4093130;28;20047;-74
2023/07/28 07:09:49;;;;;;;3.38;1.67;;;;;;;19.14;88.32;99975.22;4112799;28;20543;-74
2023/07/28 07:11:53;;;;;;;2.85;1.67;;;;;;;19.18;87.88;99971.56;4111039;28;20059;-74
2023/07/28 07:13:56;;;;;;;2.40;1.60;;;;;;;19.18;87.78;99974.22;4091204;28;20130;-74
2023/07/28 07:16:17;;;;;;;2.95;1.77;;;;;;;19.17;87.71;99971.63;4097577;28;20042;-74
2023/07/28 07:18:26;;;;;;;2.10;1.55;;;;;;;19.19;87.44;99970.66;4111459;28;20173;-74
2023/07/28 07:20:29;;;;;;;3.42;1.90;;;;;;;19.24;87.96;99972.31;4111689;28;20062;-74
2023/07/28 07:22:31;;;;;;;2.28;1.60;;;;;;;19.28;87.62;99976.59;4111655;28;20042;-74
2023/07/28 07:24:38;;;;;;;3.40;1.90;;;;;;;19.31;87.62;99977.34;4094166;28;20109;-74
2023/07/28 07:26:41;;;;;;;2.10;1.50;;;;;;;19.33;87.41;99974.66;4111533;28;20528;-74
2023/07/28 07:28:46;;;;;;;3.28;1.92;;;;;;;19.39;87.41;99969.22;4104098;28;20042;-74
2023/07/28 07:30:48;;;;;;;3.65;1.73;;;;;;;19.40;87.27;99973.56;4121170;28;20061;-74
2023/07/28 07:32:51;;;;;;;2.45;1.88;;;;;;;19.40;87.27;99973.56;4117986;28;20050;-74
2023/07/28 07:34:54;;;;;;;2.30;1.60;;;;;;;19.44;86.57;99972.59;4108069;28;20051;-73
2023/07/28 07:37:01;;;;;;;2.05;1.60;;;;;;;19.45;86.83;99976.94;4107996;28;20053;-73
2023/07/28 07:39:05;;;;;;;4.28;2.05;;;;;;;19.49;86.98;99985.63;4121369;28;20053;-74
2023/07/28 07:41:11;;;;;;;4.93;1.60;;;;;;;19.49;86.84;99985.63;4117171;28;20118;-74
2023/07/28 07:43:18;;;;;;;2.08;1.83;;;;;;;19.58;86.92;99989.75;4118538;28;20038;-73
2023/07/28 07:45:23;;;;;;;3.63;2.00;;;;;;;19.61;86.91;99993.16;4117346;28;20045;-73
2023/07/28 07:47:26;;;;;;;;;;;;;;;19.65;86.75;99988.66;4115694;28;20086;-73
2023/07/28 07:49:28;;;;;;;3.17;2.13;;;;;;;19.68;86.75;99986.78;4119689;28;20299;-74
2023/07/28 07:51:33;;;;;;;3.83;1.60;;;;;;;19.73;86.86;99986.66;4111641;28;20134;-74
2023/07/28 07:53:37;;;;;;;;;;;;;;;19.78;86.55;99990.03;4117180;28;20066;-74
2023/07/28 07:55:40;;;;;;;3.60;2.20;;;;;;;19.76;86.83;99989.19;4116707;28;19926;-73
2023/07/28 07:57:43;;;;;;;3.08;1.73;;;;;;;19.75;86.69;99989.22;4116697;28;20066;-74
2023/07/28 07:59:45;;;;;;;2.58;1.80;;;;;;;19.78;86.65;100002.31;4121963;28;20042;-74
2023/07/28 08:01:49;;;;;;;4.45;1.92;;;;;;;19.76;87.26;99997.09;4114093;28;20039;-74
2023/07/28 08:03:52;;;;;;;1.85;1.60;;;;;;;19.78;87.85;99999.69;4117507;28;20518;-74
2023/07/28 08:05:55;;;;;;;2.88;1.98;;;;;;;19.87;87.09;100000.31;4106206;28;20119;-75
2023/07/28 08:08:08;;;;;;;3.25;2.22;;;;;;;19.86;87.43;100006.47;4098658;28;20043;-74
2023/07/28 08:10:11;;;;;;;3.07;1.77;;;;;;;19.88;87.54;100009.91;4123685;28;20046;-74
2023/07/28 08:12:16;;;;;;;2.65;2.05;;;;;;;20.01;87.08;100004.28;4115301;28;20863;-74
2023/07/28 08:14:19;;;;;;;2.47;1.95;;;;;;;20.03;86.75;100005.06;4115493;28;20041;-74
2023/07/28 08:16:22;;;;;;;3.13;1.90;;;;;;;20.05;86.61;99998.00;4118403;28;20045;-74
2023/07/28 08:18:26;;;;;;;5.13;1.90;;;;;;;20.15;86.79;100004.69;4118815;28;20062;-74
2023/07/28 08:20:29;;;;;;;2.15;1.90;;;;;;;20.39;85.56;100003.00;4111645;28;20075;-74
2023/07/28 08:22:32;;;;;;;2.13;1.90;;;;;;;20.48;85.64;100004.47;4096932;29;20125;-74
2023/07/28 08:24:35;;;;;;;2.65;1.90;;;;;;;20.61;85.72;100009.34;4119383;28;20073;-74
2023/07/28 08:26:38;;;;;;;2.28;1.63;;;;;;;20.64;85.35;100006.59;4119924;28;20034;-74
2023/07/28 08:28:41;;;;;;;4.53;1.60;;;;;;;20.77;85.00;100001.78;4115501;28;20068;-74
2023/07/28 08:30:44;;;;;;;2.13;1.55;;;;;;;20.92;83.97;99991.53;4111512;28;20038;-74
2023/07/28 08:32:48;;;;;;;3.53;2.13;;;;;;;21.05;83.06;99991.91;4105739;28;20046;-74
2023/07/28 08:34:53;;;;;;;2.95;1.48;;;;;;;21.17;82.99;100000.31;4112070;28;20560;-74
2023/07/28 08:36:56;;;;;;;2.63;1.80;;;;;;;21.36;82.10;99996.06;4095588;28;20070;-75
2023/07/28 08:38:58;;;;;;;1.42;1.15;;;;;;;21.44;81.34;99995.78;4140632;22;20140;-69
2023/07/28 08:41:01;;;;;;;1.98;1.40;;;;;;;21.55;80.59;99985.69;4140182;28;21120;-69
2023/07/28 08:43:04;;;;;;;3.42;1.23;;;;;;;21.64;80.38;99989.75;4128211;28;20049;-71
2023/07/28 08:45:08;;;;;;;1.98;1.08;;;;;;;21.71;79.40;99996.53;4147037;28;20050;-69
2023/07/28 08:47:11;;;;;;;1.60;1.20;;;;;;;21.77;79.18;100009.50;4145091;28;20058;-69
2023/07/28 08:49:14;;;;;;;2.72;1.50;;;;;;;21.78;78.65;100002.41;4133918;28;20515;-69
2023/07/28 08:51:18;;;;;;;1.85;1.35;;;;;;;21.88;78.12;100013.50;4129626;28;20038;-70
2023/07/28 08:53:21;;;;;;;3.15;1.75;;;;;;;21.99;77.94;100013.94;4132875;28;20057;-70
2023/07/28 08:55:24;;;;;;;2.13;1.25;;;;;;;21.84;78.10;100006.59;4130874;28;20030;-70
2023/07/28 08:57:28;;;;;;;1.42;1.17;;;;;;;21.87;77.74;100012.63;4137998;28;20074;-70
2023/07/28 08:59:30;;;;;;;1.63;1.48;;;;;;;21.85;78.18;100014.50;4146136;28;20066;-71
2023/07/28 09:01:34;;;;;;;1.92;1.42;;;;;;;21.81;77.89;100010.22;4134546;28;20058;-70
2023/07/28 09:03:41;;;;;;;2.42;1.60;;;;;;;21.78;78.56;100013.00;4134459;28;20046;-70
2023/07/28 09:05:44;;;;;;;2.10;1.45;;;;;;;21.77;77.87;100012.16;4112267;28;20035;-70
2023/07/28 09:07:48;;;;;;;3.17;1.67;;;;;;;21.76;78.57;100015.72;4143443;28;20073;-71
2023/07/28 09:09:59;;;;;;;;;;;;;;;21.71;78.56;100014.16;4142413;28;20053;-70
2023/07/28 09:12:02;;;;;;;2.13;1.70;;;;;;;21.63;79.35;100008.34;4149827;28;19956;-71
2023/07/28 09:14:12;;;;;;;1.70;1.60;;;;;;;21.79;78.53;100015.59;4138655;28;20041;-70
2023/07/28 09:16:19;;;;;;;1.65;1.50;;;;;;;22.04;77.06;100013.75;4138879;28;20038;-70
2023/07/28 09:18:27;;;;;;;2.28;1.65;;;;;;;22.36;75.22;100009.81;4134071;28;20046;-70
2023/07/28 09:20:35;;;;;;;1.95;1.40;;;;;;;22.48;75.44;100014.56;4130113;28;20504;-70
2023/07/28 09:22:39;;;;;;;1.65;1.25;;;;;;;22.41;75.61;100018.41;4145646;28;20046;-71
2023/07/28 09:24:42;;;;;;;1.50;1.40;;;;;;;22.16;74.96;100015.88;4118295;28;20047;-71
2023/07/28 09:26:47;;;;;;;3.38;2.88;;;;;;;22.15;75.85;100014.16;4138710;28;20034;-71
2023/07/28 09:28:50;;;;;;;2.20;1.75;;;;;;;22.24;76.13;100016.44;4132276;28;20073;-70
2023/07/28 09:30:54;;;;;;;3.72;2.03;;;;;;;22.12;75.86;100011.66;4138597;28;20096;-70
2023/07/28 09:32:57;;;;;;;1.88;1.20;;;;;;;22.06;76.12;100020.69;4142073;28;20053;-70
2023/07/28 09:35:09;;;;;;;3.17;1.45;;;;;;;21.95;75.50;100023.78;4136565;28;20042;-71
2023/07/28 09:37:13;;;;;;;1.90;1.45;;;;;;;21.88;75.81;100019.66;4132043;28;20034;-70
2023/07/28 09:39:18;;;;;;;3.65;1.50;;;;;;;22.08;74.88;100016.22;4130063;28;20189;-71
2023/07/28 09:41:23;;;;;;;2.63;1.13;;;;;;;22.19;73.97;100023.69;4133398;28;20420;-71
2023/07/28 09:43:26;;;;;;;3.53;1.30;;;;;;;22.14;72.87;100020.41;4118744;28;20404;-71
2023/07/28 09:45:31;;;;;;;2.15;1.30;;;;;;;22.12;73.29;100014.28;4132652;28;20466;-71